Ernest Campbell — WDB3005 — position and weather

sailwx.info

Track history (hours):
 
Tides and Currents Weather Stations Pressure Air Temp Water Temp Dewpoint Dewpoint Depression Visibility Wind Speed Wind Dir Waves Ship Positions

Ernest Campbell

Owner: Campbell Leasing Company LLC, Wrangell, AK. More information available from US FCC via Universal Licensing System and Coast Guard Vessel Documentation Center.

Last reported at 2015-Apr-27 20:17 UTC. Time now 2015-Apr-27 20:47 UTC.
Position N 48°14' W 122°48'.

Length 33 m; draft 4.6 m.

Type: Tow > 200 m length. MMSI: 366882320.

Date/timePositionNaut miles runAvg speedWind from/ knotsBaromVisibWave heightAir tempDewpointWater temp
2015-Apr-27 20:17N 48°14' W 122°48'10 5.6
2015-Apr-27 18:28N 48°06' W 122°39'8 7.4
2015-Apr-27 17:27N 47°59' W 122°35'2 6.7
2015-Apr-27 17:07N 47°57' W 122°33'4 7.2
2015-Apr-27 16:33N 47°55' W 122°28'2 7.6
2015-Apr-27 16:17N 47°53' W 122°28'6 7.9
2015-Apr-27 15:33N 47°47' W 122°26'0 7.4
2015-Apr-27 15:32N 47°47' W 122°26'8 7.8
2015-Apr-27 14:33N 47°39' W 122°27'0 7.5
2015-Apr-27 14:32N 47°39' W 122°27'5 5.0
2015-Apr-27 13:33N 47°35' W 122°22'0 0.0
2015-Apr-27 13:31N 47°35' W 122°22'0 0.0
2015-Apr-27 12:33N 47°35' W 122°22'0 0.0
2015-Apr-27 12:31N 47°35' W 122°22'0 0.0
2015-Apr-27 11:33N 47°35' W 122°22'0 0.0
2015-Apr-27 11:31N 47°35' W 122°22'0 0.0
2015-Apr-27 10:33N 47°35' W 122°22'0 0.0
2015-Apr-27 10:30N 47°35' W 122°22'0 0.0
2015-Apr-27 09:33N 47°35' W 122°22'0 0.0
2015-Apr-27 09:29N 47°35' W 122°22'0 0.0
2015-Apr-27 08:33N 47°35' W 122°22'0 0.0
2015-Apr-27 08:33N 47°35' W 122°22'0 0.0
2015-Apr-27 07:33N 47°35' W 122°22'0 0.0
2015-Apr-27 07:33N 47°35' W 122°22'0 0.0
2015-Apr-27 06:33N 47°35' W 122°22'0 0.0
2015-Apr-27 06:32N 47°35' W 122°22'0 0.0
2015-Apr-27 06:08N 47°35' W 122°22'0 0.0
2015-Apr-27 05:33N 47°35' W 122°22'0 0.0
2015-Apr-27 04:33N 47°35' W 122°22'0 0.0
2015-Apr-27 04:32N 47°35' W 122°22'0 0.0
2015-Apr-27 03:33N 47°35' W 122°22'0 0.0
2015-Apr-27 03:32N 47°35' W 122°22'0 0.0
2015-Apr-27 02:33N 47°35' W 122°22'0 0.0
2015-Apr-27 02:32N 47°35' W 122°22'0 0.0
2015-Apr-27 01:33N 47°35' W 122°22'0 0.0
2015-Apr-27 01:32N 47°35' W 122°22'0 0.0
2015-Apr-27 00:33N 47°35' W 122°22'0 0.2
2015-Apr-27 00:31N 47°35' W 122°22'0 0.0
2015-Apr-26 23:33N 47°35' W 122°22'0 0.0
2015-Apr-26 23:31N 47°35' W 122°22'0 0.0
2015-Apr-26 22:33N 47°35' W 122°22'0 0.2
2015-Apr-26 22:31N 47°35' W 122°22'0 0.0
2015-Apr-26 21:33N 47°35' W 122°22'0 0.0
2015-Apr-26 21:31N 47°35' W 122°22'0 0.0
2015-Apr-26 20:33N 47°35' W 122°22'0 0.1
2015-Apr-26 20:30N 47°35' W 122°22'0 0.0
2015-Apr-26 19:33N 47°35' W 122°22'0 0.0
2015-Apr-26 19:29N 47°35' W 122°22'0 0.0
2015-Apr-26 18:33N 47°35' W 122°22'0 0.0
2015-Apr-26 18:02N 47°35' W 122°22'0 0.0
2015-Apr-26 17:33N 47°35' W 122°22'0 0.0
2015-Apr-26 17:32N 47°35' W 122°22'0 0.0
2015-Apr-26 16:33N 47°35' W 122°22'0 0.0
2015-Apr-26 15:33N 47°35' W 122°22'0 0.0
2015-Apr-26 15:18N 47°35' W 122°22'0 0.0
2015-Apr-26 14:33N 47°35' W 122°22'0 0.0
2015-Apr-26 14:33N 47°35' W 122°22'0 0.0
2015-Apr-26 13:33N 47°35' W 122°22'0 0.0
2015-Apr-26 13:33N 47°35' W 122°22'0 0.0
2015-Apr-26 12:33N 47°35' W 122°22'0 0.0
2015-Apr-26 12:33N 47°35' W 122°22'0 0.0
2015-Apr-26 11:33N 47°35' W 122°22'0 0.0
2015-Apr-26 11:15N 47°35' W 122°22'0 0.0
2015-Apr-26 10:33N 47°35' W 122°22'0 0.0
2015-Apr-26 10:30N 47°35' W 122°22'0 0.0
2015-Apr-26 09:33N 47°35' W 122°22'0 0.0
2015-Apr-26 09:20N 47°35' W 122°22'0 0.0
2015-Apr-26 08:33N 47°35' W 122°22'0 0.1
2015-Apr-26 08:30N 47°35' W 122°22'0 0.0
2015-Apr-26 07:33N 47°35' W 122°22'0 0.1
2015-Apr-26 07:30N 47°35' W 122°22'0 0.0
2015-Apr-26 06:33N 47°35' W 122°22'0 0.0
2015-Apr-26 05:33N 47°35' W 122°22'0 0.1
2015-Apr-26 05:27N 47°35' W 122°22'0 0.1
2015-Apr-26 04:34N 47°35' W 122°22'0 0.0
2015-Apr-26 04:31N 47°35' W 122°22'0 0.0
2015-Apr-26 03:33N 47°35' W 122°22'0 0.0
2015-Apr-26 03:31N 47°35' W 122°22'0 0.0
2015-Apr-26 02:33N 47°35' W 122°22'0 0.0
2015-Apr-26 02:31N 47°35' W 122°22'0 0.0
2015-Apr-26 01:33N 47°35' W 122°22'0 0.0
2015-Apr-26 01:31N 47°35' W 122°22'0 0.0
2015-Apr-26 00:33N 47°35' W 122°22'0 0.0
2015-Apr-26 00:30N 47°35' W 122°22'0 0.0
2015-Apr-25 23:33N 47°35' W 122°22'0 0.1
2015-Apr-25 23:30N 47°35' W 122°22'0 0.0
2015-Apr-25 22:33N 47°35' W 122°22'0 0.0
2015-Apr-25 22:30N 47°35' W 122°22'0 0.0
2015-Apr-25 21:33N 47°35' W 122°22'1 0.9
2015-Apr-25 20:34N 47°36' W 122°21'1 0.5
2015-Apr-25 19:33N 47°35' W 122°21'0 0.0
2015-Apr-25 18:33N 47°35' W 122°21'0 0.0
2015-Apr-25 17:33N 47°35' W 122°21'0 0.0
2015-Apr-25 16:30N 47°35' W 122°21'0 0.0
2015-Apr-25 15:32N 47°35' W 122°21'0 0.5
2015-Apr-25 14:33N 47°35' W 122°21'0 0.0
2015-Apr-25 13:33N 47°35' W 122°21'0 0.0
2015-Apr-25 12:33N 47°35' W 122°21'0 0.0
2015-Apr-25 11:33N 47°35' W 122°21'0 0.0
2015-Apr-25 10:33N 47°35' W 122°21'0 0.0
2015-Apr-25 09:33N 47°35' W 122°21'0 0.0
2015-Apr-25 08:33N 47°35' W 122°21'0 0.0
2015-Apr-25 07:33N 47°35' W 122°21'0 0.0
2015-Apr-25 06:33N 47°35' W 122°21'0 0.0
2015-Apr-25 05:33N 47°35' W 122°21'0 0.0
2015-Apr-25 04:33N 47°35' W 122°21'0 0.0
2015-Apr-25 03:33N 47°35' W 122°21'0 0.0
2015-Apr-25 02:33N 47°35' W 122°21'0 0.0
2015-Apr-25 01:33N 47°35' W 122°21'0 0.0
2015-Apr-25 00:33N 47°35' W 122°21'0 0.0
2015-Apr-24 23:33N 47°35' W 122°21'0 0.0
2015-Apr-24 22:33N 47°35' W 122°21'1 1.0
2015-Apr-24 21:33N 47°34' W 122°21'0 0.0
2015-Apr-24 20:33N 47°34' W 122°21'0 0.0
2015-Apr-24 19:33N 47°34' W 122°21'0 0.0
2015-Apr-24 18:33N 47°34' W 122°21'0 0.0
2015-Apr-24 17:32N 47°34' W 122°21'0 0.0
2015-Apr-24 16:33N 47°34' W 122°21'1 1.0
2015-Apr-24 15:33N 47°35' W 122°21'0 0.0
2015-Apr-24 14:33N 47°35' W 122°21'0 0.0
2015-Apr-24 13:33N 47°35' W 122°21'0 0.0
2015-Apr-24 12:33N 47°35' W 122°21'0 0.0
2015-Apr-24 11:33N 47°35' W 122°21'0 0.0
2015-Apr-24 10:33N 47°35' W 122°21'0 0.0
2015-Apr-24 09:33N 47°35' W 122°21'0 0.0
2015-Apr-24 08:33N 47°35' W 122°21'0 0.0
2015-Apr-24 07:33N 47°35' W 122°21'0 0.0
2015-Apr-24 06:33N 47°35' W 122°21'0 0.0
2015-Apr-24 05:33N 47°35' W 122°21'0 0.2
2015-Apr-24 04:33N 47°36' W 122°21'0 0.0
2015-Apr-24 03:33N 47°36' W 122°21'0 0.0
2015-Apr-24 02:33N 47°36' W 122°21'0 0.0
2015-Apr-24 01:33N 47°36' W 122°21'0 0.3
2015-Apr-24 00:33N 47°36' W 122°21'5 5.4
2015-Apr-23 23:33N 47°33' W 122°27'8 7.5
2015-Apr-23 22:33N 47°26' W 122°32'7 6.8
2015-Apr-23 21:34N 47°19' W 122°30'6 6.0
2015-Apr-23 20:33N 47°15' W 122°23'0 0.1
2015-Apr-23 19:33N 47°15' W 122°23'0 0.0
2015-Apr-23 18:33N 47°15' W 122°23'0 0.0
2015-Apr-23 17:33N 47°15' W 122°23'0 0.0
2015-Apr-23 16:33N 47°15' W 122°23'2 1.5
2015-Apr-23 15:33N 47°16' W 122°24'2 2.0
2015-Apr-23 14:33N 47°17' W 122°27'4 3.9
2015-Apr-23 13:33N 47°21' W 122°25'5 5.5
2015-Apr-23 12:33N 47°27' W 122°25'7 7.3
2015-Apr-23 11:33N 47°34' W 122°27'7 7.0
2015-Apr-23 10:33N 47°41' W 122°28'7 7.0
2015-Apr-23 09:33N 47°48' W 122°27'7 6.8
2015-Apr-23 08:33N 47°54' W 122°30'5 5.4
2015-Apr-23 07:33N 47°58' W 122°36'6 5.5
2015-Apr-23 06:33N 48°03' W 122°39'6 5.8
2015-Apr-23 05:33N 48°08' W 122°43'7 6.7
2015-Apr-23 04:33N 48°11' W 122°52'8 7.9
2015-Apr-23 03:33N 48°12' W 123°04'8 8.4
2015-Apr-23 02:33N 48°10' W 123°16'5 5.4
2015-Apr-23 01:33N 48°08' W 123°24'0 0.1
2015-Apr-22 23:29N 48°08' W 123°24'0 0.0
2015-Apr-22 22:33N 48°08' W 123°24'0 0.0
2015-Apr-22 21:33N 48°08' W 123°24'1 0.6
2015-Apr-22 20:33N 48°08' W 123°25'0 0.0
2015-Apr-22 19:33N 48°08' W 123°25'0 0.0
2015-Apr-22 18:33N 48°08' W 123°25'0 0.0
2015-Apr-22 17:33N 48°08' W 123°25'0 0.0
2015-Apr-22 16:33N 48°08' W 123°25'0 0.0
2015-Apr-22 15:33N 48°08' W 123°25'0 0.0
2015-Apr-22 14:33N 48°08' W 123°25'0 0.0
2015-Apr-22 13:33N 48°08' W 123°25'1 1.4
2015-Apr-22 12:33N 48°08' W 123°27'0 0.1
2015-Apr-22 11:12N 48°08' W 123°27'0 0.1
2015-Apr-22 10:33N 48°08' W 123°27'0 0.0
2015-Apr-22 09:30N 48°08' W 123°27'0 0.0
2015-Apr-22 08:30N 48°08' W 123°27'0 0.0
2015-Apr-22 07:30N 48°08' W 123°27'0 0.0
2015-Apr-22 06:30N 48°08' W 123°27'0 0.1
2015-Apr-22 05:27N 48°08' W 123°27'0 0.0
2015-Apr-22 04:33N 48°08' W 123°27'0 0.0
2015-Apr-22 03:30N 48°08' W 123°27'0 0.0
2015-Apr-22 02:27N 48°08' W 123°27'0 0.0
2015-Apr-22 01:21N 48°08' W 123°27'0 0.0
2015-Apr-22 00:21N 48°08' W 123°27'0 0.0
2015-Apr-21 23:33N 48°08' W 123°27'0 0.0
2015-Apr-21 22:33N 48°08' W 123°27'0 0.0
2015-Apr-21 21:33N 48°08' W 123°27'0 0.0
2015-Apr-21 20:33N 48°08' W 123°27'0 0.0
2015-Apr-21 19:21N 48°08' W 123°27'0 0.0
2015-Apr-21 18:33N 48°08' W 123°27'0 0.0
2015-Apr-21 17:30N 48°08' W 123°27'0 0.0
2015-Apr-21 16:15N 48°08' W 123°27'0 0.0
2015-Apr-21 15:30N 48°08' W 123°27'0 0.0
2015-Apr-21 14:33N 48°08' W 123°27'0 0.0
2015-Apr-21 13:15N 48°08' W 123°27'0 0.0
2015-Apr-21 12:33N 48°08' W 123°27'0 0.0
2015-Apr-21 11:27N 48°08' W 123°27'0 0.0
2015-Apr-21 10:24N 48°08' W 123°27'0 0.0
2015-Apr-21 09:33N 48°08' W 123°27'0 0.0
2015-Apr-21 08:30N 48°08' W 123°27'0 0.0
2015-Apr-21 07:33N 48°08' W 123°27'0 0.0
2015-Apr-21 06:33N 48°08' W 123°27'0 0.0
2015-Apr-21 05:33N 48°08' W 123°27'0 0.0
2015-Apr-21 04:33N 48°08' W 123°27'0 0.0
2015-Apr-21 03:32N 48°08' W 123°27'0 0.0
2015-Apr-21 02:33N 48°08' W 123°27'2 1.6
2015-Apr-21 01:33N 48°08' W 123°25'4 3.6
2015-Apr-21 00:33N 48°09' W 123°20'5 4.7
2015-Apr-20 23:33N 48°11' W 123°13'6 5.8
2015-Apr-20 22:31N 48°13' W 123°05'14 6.3
2015-Apr-20 20:21N 48°19' W 122°47'7 8.1
2015-Apr-20 19:33N 48°26' W 122°45'1010.3
2015-Apr-20 18:33N 48°35' W 122°40'5 4.7
2015-Apr-20 17:33N 48°36' W 122°33'0 0.4
2015-Apr-20 16:33N 48°36' W 122°33'0 0.0
2015-Apr-20 15:33N 48°36' W 122°32'0 0.0
2015-Apr-20 14:33N 48°36' W 122°32'0 0.1
2015-Apr-20 13:33N 48°36' W 122°32'0 0.1
2015-Apr-20 12:33N 48°36' W 122°32'0 0.1
2015-Apr-20 11:33N 48°36' W 122°32'3 2.6
2015-Apr-20 10:33N 48°37' W 122°36'5 5.3
2015-Apr-20 09:33N 48°33' W 122°40'5 5.1
2015-Apr-20 08:33N 48°28' W 122°44'5 5.1
2015-Apr-20 07:28N 48°23' W 122°44'5 5.1
2015-Apr-20 06:33N 48°18' W 122°46'5 4.8
2015-Apr-20 05:30N 48°13' W 122°48'9 7.7
2015-Apr-20 04:22N 48°07' W 122°39'6 6.8
2015-Apr-20 03:28N 48°01' W 122°37'6 7.1
2015-Apr-20 02:33N 47°56' W 122°30'6 6.0
2015-Apr-20 01:33N 47°51' W 122°27'6 6.1
2015-Apr-20 00:33N 47°45' W 122°26'6 5.9
2015-Apr-19 23:33N 47°39' W 122°27'5 4.7
2015-Apr-19 22:34N 47°36' W 122°21'1 1.0
2015-Apr-19 21:33N 47°35' W 122°21'0 0.0
2015-Apr-19 20:33N 47°35' W 122°21'0 0.0
2015-Apr-19 19:33N 47°35' W 122°21'0 0.0
2015-Apr-19 18:33N 47°35' W 122°21'0 0.0
2015-Apr-19 17:33N 47°35' W 122°21'0 0.0
2015-Apr-19 16:33N 47°35' W 122°21'0 0.0
2015-Apr-19 15:33N 47°35' W 122°21'0 0.0
2015-Apr-19 14:33N 47°35' W 122°21'0 0.0
2015-Apr-19 13:33N 47°35' W 122°21'0 0.4
2015-Apr-19 12:33N 47°34' W 122°21'0 0.0
2015-Apr-19 11:33N 47°34' W 122°21'0 0.0
2015-Apr-19 10:33N 47°34' W 122°21'0 0.0
2015-Apr-19 09:33N 47°34' W 122°21'0 0.0
2015-Apr-19 08:33N 47°34' W 122°21'0 0.0
2015-Apr-19 07:33N 47°34' W 122°21'0 0.0
2015-Apr-19 06:33N 47°34' W 122°21'0 0.0
2015-Apr-19 05:33N 47°34' W 122°21'0 0.0
2015-Apr-19 04:33N 47°34' W 122°21'0 0.0
2015-Apr-19 03:33N 47°34' W 122°21'0 0.0
2015-Apr-19 02:33N 47°34' W 122°21'0 0.0
2015-Apr-19 01:33N 47°34' W 122°21'0 0.0
2015-Apr-19 00:30N 47°34' W 122°21'0 0.0
2015-Apr-18 23:33N 47°34' W 122°21'0 0.0
2015-Apr-18 22:33N 47°34' W 122°21'0 0.0
2015-Apr-18 21:33N 47°34' W 122°21'0 0.0
2015-Apr-18 20:33N 47°34' W 122°21'0 0.0
2015-Apr-18 19:33N 47°34' W 122°21'0 0.0
2015-Apr-18 18:33N 47°34' W 122°21'0 0.0
2015-Apr-18 17:33N 47°34' W 122°21'0 0.1
2015-Apr-18 16:33N 47°35' W 122°21'0 0.2
2015-Apr-18 15:33N 47°34' W 122°21'0 0.0
2015-Apr-18 14:33N 47°34' W 122°21'0 0.1
2015-Apr-18 13:33N 47°34' W 122°21'0 0.0
2015-Apr-18 12:33N 47°34' W 122°21'0 0.0
2015-Apr-18 11:33N 47°34' W 122°21'0 0.0
2015-Apr-18 10:33N 47°34' W 122°21'0 0.0
2015-Apr-18 09:33N 47°34' W 122°21'0 0.0
2015-Apr-18 08:33N 47°34' W 122°21'0 0.0
2015-Apr-18 07:33N 47°34' W 122°21'0 0.0
2015-Apr-18 06:33N 47°34' W 122°21'0 0.0
2015-Apr-18 05:33N 47°34' W 122°21'0 0.0
2015-Apr-18 04:33N 47°34' W 122°21'0 0.0
2015-Apr-18 03:33N 47°34' W 122°21'0 0.0
2015-Apr-18 02:34N 47°34' W 122°21'0 0.0
2015-Apr-18 01:33N 47°34' W 122°21'0 0.0
2015-Apr-18 00:33N 47°34' W 122°21'0 0.0
2015-Apr-17 23:33N 47°34' W 122°21'0 0.0
2015-Apr-17 22:33N 47°34' W 122°21'0 0.0
2015-Apr-17 21:33N 47°34' W 122°21'0 0.0
2015-Apr-17 20:33N 47°34' W 122°21'  
Track history (hours):
 
Tides and Currents Weather Stations Pressure Air Temp Water Temp Dewpoint Dewpoint Depression Visibility Wind Speed Wind Dir Waves Ship Positions

Ernest Campbell

Owner: Campbell Leasing Company LLC, Wrangell, AK. More information available from US FCC via Universal Licensing System and Coast Guard Vessel Documentation Center.

Last reported at 2015-Apr-27 20:17 UTC. Time now 2015-Apr-27 20:47 UTC.
Position N 48°14' W 122°48'.

Length 33 m; draft 4.6 m.

Type: Tow > 200 m length. MMSI: 366882320.

Date/timePositionNaut miles runAvg speedWind from/ knotsBaromVisibWave heightAir tempDewpointWater temp
2015-Apr-27 20:17N 48°14' W 122°48'10 5.6
2015-Apr-27 18:28N 48°06' W 122°39'8 7.4
2015-Apr-27 17:27N 47°59' W 122°35'2 6.7
2015-Apr-27 17:07N 47°57' W 122°33'4 7.2
2015-Apr-27 16:33N 47°55' W 122°28'2 7.6
2015-Apr-27 16:17N 47°53' W 122°28'6 7.9
2015-Apr-27 15:33N 47°47' W 122°26'0 7.4
2015-Apr-27 15:32N 47°47' W 122°26'8 7.8
2015-Apr-27 14:33N 47°39' W 122°27'0 7.5
2015-Apr-27 14:32N 47°39' W 122°27'5 5.0
2015-Apr-27 13:33N 47°35' W 122°22'0 0.0
2015-Apr-27 13:31N 47°35' W 122°22'0 0.0
2015-Apr-27 12:33N 47°35' W 122°22'0 0.0
2015-Apr-27 12:31N 47°35' W 122°22'0 0.0
2015-Apr-27 11:33N 47°35' W 122°22'0 0.0
2015-Apr-27 11:31N 47°35' W 122°22'0 0.0
2015-Apr-27 10:33N 47°35' W 122°22'0 0.0
2015-Apr-27 10:30N 47°35' W 122°22'0 0.0
2015-Apr-27 09:33N 47°35' W 122°22'0 0.0
2015-Apr-27 09:29N 47°35' W 122°22'0 0.0
2015-Apr-27 08:33N 47°35' W 122°22'0 0.0
2015-Apr-27 08:33N 47°35' W 122°22'0 0.0
2015-Apr-27 07:33N 47°35' W 122°22'0 0.0
2015-Apr-27 07:33N 47°35' W 122°22'0 0.0
2015-Apr-27 06:33N 47°35' W 122°22'0 0.0
2015-Apr-27 06:32N 47°35' W 122°22'0 0.0
2015-Apr-27 06:08N 47°35' W 122°22'0 0.0
2015-Apr-27 05:33N 47°35' W 122°22'0 0.0
2015-Apr-27 04:33N 47°35' W 122°22'0 0.0
2015-Apr-27 04:32N 47°35' W 122°22'0 0.0
2015-Apr-27 03:33N 47°35' W 122°22'0 0.0
2015-Apr-27 03:32N 47°35' W 122°22'0 0.0
2015-Apr-27 02:33N 47°35' W 122°22'0 0.0
2015-Apr-27 02:32N 47°35' W 122°22'0 0.0
2015-Apr-27 01:33N 47°35' W 122°22'0 0.0
2015-Apr-27 01:32N 47°35' W 122°22'0 0.0
2015-Apr-27 00:33N 47°35' W 122°22'0 0.2
2015-Apr-27 00:31N 47°35' W 122°22'0 0.0
2015-Apr-26 23:33N 47°35' W 122°22'0 0.0
2015-Apr-26 23:31N 47°35' W 122°22'0 0.0
2015-Apr-26 22:33N 47°35' W 122°22'0 0.2
2015-Apr-26 22:31N 47°35' W 122°22'0 0.0
2015-Apr-26 21:33N 47°35' W 122°22'0 0.0
2015-Apr-26 21:31N 47°35' W 122°22'0 0.0
2015-Apr-26 20:33N 47°35' W 122°22'0 0.1
2015-Apr-26 20:30N 47°35' W 122°22'0 0.0
2015-Apr-26 19:33N 47°35' W 122°22'0 0.0
2015-Apr-26 19:29N 47°35' W 122°22'0 0.0
2015-Apr-26 18:33N 47°35' W 122°22'0 0.0
2015-Apr-26 18:02N 47°35' W 122°22'0 0.0
2015-Apr-26 17:33N 47°35' W 122°22'0 0.0
2015-Apr-26 17:32N 47°35' W 122°22'0 0.0
2015-Apr-26 16:33N 47°35' W 122°22'0 0.0
2015-Apr-26 15:33N 47°35' W 122°22'0 0.0
2015-Apr-26 15:18N 47°35' W 122°22'0 0.0
2015-Apr-26 14:33N 47°35' W 122°22'0 0.0
2015-Apr-26 14:33N 47°35' W 122°22'0 0.0
2015-Apr-26 13:33N 47°35' W 122°22'0 0.0
2015-Apr-26 13:33N 47°35' W 122°22'0 0.0
2015-Apr-26 12:33N 47°35' W 122°22'0 0.0
2015-Apr-26 12:33N 47°35' W 122°22'0 0.0
2015-Apr-26 11:33N 47°35' W 122°22'0 0.0
2015-Apr-26 11:15N 47°35' W 122°22'0 0.0
2015-Apr-26 10:33N 47°35' W 122°22'0 0.0
2015-Apr-26 10:30N 47°35' W 122°22'0 0.0
2015-Apr-26 09:33N 47°35' W 122°22'0 0.0
2015-Apr-26 09:20N 47°35' W 122°22'0 0.0
2015-Apr-26 08:33N 47°35' W 122°22'0 0.1
2015-Apr-26 08:30N 47°35' W 122°22'0 0.0
2015-Apr-26 07:33N 47°35' W 122°22'0 0.1
2015-Apr-26 07:30N 47°35' W 122°22'0 0.0
2015-Apr-26 06:33N 47°35' W 122°22'0 0.0
2015-Apr-26 05:33N 47°35' W 122°22'0 0.1
2015-Apr-26 05:27N 47°35' W 122°22'0 0.1
2015-Apr-26 04:34N 47°35' W 122°22'0 0.0
2015-Apr-26 04:31N 47°35' W 122°22'0 0.0
2015-Apr-26 03:33N 47°35' W 122°22'0 0.0
2015-Apr-26 03:31N 47°35' W 122°22'0 0.0
2015-Apr-26 02:33N 47°35' W 122°22'0 0.0
2015-Apr-26 02:31N 47°35' W 122°22'0 0.0
2015-Apr-26 01:33N 47°35' W 122°22'0 0.0
2015-Apr-26 01:31N 47°35' W 122°22'0 0.0
2015-Apr-26 00:33N 47°35' W 122°22'0 0.0
2015-Apr-26 00:30N 47°35' W 122°22'0 0.0
2015-Apr-25 23:33N 47°35' W 122°22'0 0.1
2015-Apr-25 23:30N 47°35' W 122°22'0 0.0
2015-Apr-25 22:33N 47°35' W 122°22'0 0.0
2015-Apr-25 22:30N 47°35' W 122°22'0 0.0
2015-Apr-25 21:33N 47°35' W 122°22'1 0.9
2015-Apr-25 20:34N 47°36' W 122°21'1 0.5
2015-Apr-25 19:33N 47°35' W 122°21'0 0.0
2015-Apr-25 18:33N 47°35' W 122°21'0 0.0
2015-Apr-25 17:33N 47°35' W 122°21'0 0.0
2015-Apr-25 16:30N 47°35' W 122°21'0 0.0
2015-Apr-25 15:32N 47°35' W 122°21'0 0.5
2015-Apr-25 14:33N 47°35' W 122°21'0 0.0
2015-Apr-25 13:33N 47°35' W 122°21'0 0.0
2015-Apr-25 12:33N 47°35' W 122°21'0 0.0
2015-Apr-25 11:33N 47°35' W 122°21'0 0.0
2015-Apr-25 10:33N 47°35' W 122°21'0 0.0
2015-Apr-25 09:33N 47°35' W 122°21'0 0.0
2015-Apr-25 08:33N 47°35' W 122°21'0 0.0
2015-Apr-25 07:33N 47°35' W 122°21'0 0.0
2015-Apr-25 06:33N 47°35' W 122°21'0 0.0
2015-Apr-25 05:33N 47°35' W 122°21'0 0.0
2015-Apr-25 04:33N 47°35' W 122°21'0 0.0
2015-Apr-25 03:33N 47°35' W 122°21'0 0.0
2015-Apr-25 02:33N 47°35' W 122°21'0 0.0
2015-Apr-25 01:33N 47°35' W 122°21'0 0.0
2015-Apr-25 00:33N 47°35' W 122°21'0 0.0
2015-Apr-24 23:33N 47°35' W 122°21'0 0.0
2015-Apr-24 22:33N 47°35' W 122°21'1 1.0
2015-Apr-24 21:33N 47°34' W 122°21'0 0.0
2015-Apr-24 20:33N 47°34' W 122°21'0 0.0
2015-Apr-24 19:33N 47°34' W 122°21'0 0.0
2015-Apr-24 18:33N 47°34' W 122°21'0 0.0
2015-Apr-24 17:32N 47°34' W 122°21'0 0.0
2015-Apr-24 16:33N 47°34' W 122°21'1 1.0
2015-Apr-24 15:33N 47°35' W 122°21'0 0.0
2015-Apr-24 14:33N 47°35' W 122°21'0 0.0
2015-Apr-24 13:33N 47°35' W 122°21'0 0.0
2015-Apr-24 12:33N 47°35' W 122°21'0 0.0
2015-Apr-24 11:33N 47°35' W 122°21'0 0.0
2015-Apr-24 10:33N 47°35' W 122°21'0 0.0
2015-Apr-24 09:33N 47°35' W 122°21'0 0.0
2015-Apr-24 08:33N 47°35' W 122°21'0 0.0
2015-Apr-24 07:33N 47°35' W 122°21'0 0.0
2015-Apr-24 06:33N 47°35' W 122°21'0 0.0
2015-Apr-24 05:33N 47°35' W 122°21'0 0.2
2015-Apr-24 04:33N 47°36' W 122°21'0 0.0
2015-Apr-24 03:33N 47°36' W 122°21'0 0.0
2015-Apr-24 02:33N 47°36' W 122°21'0 0.0
2015-Apr-24 01:33N 47°36' W 122°21'0 0.3
2015-Apr-24 00:33N 47°36' W 122°21'5 5.4
2015-Apr-23 23:33N 47°33' W 122°27'8 7.5
2015-Apr-23 22:33N 47°26' W 122°32'7 6.8
2015-Apr-23 21:34N 47°19' W 122°30'6 6.0
2015-Apr-23 20:33N 47°15' W 122°23'0 0.1
2015-Apr-23 19:33N 47°15' W 122°23'0 0.0
2015-Apr-23 18:33N 47°15' W 122°23'0 0.0
2015-Apr-23 17:33N 47°15' W 122°23'0 0.0
2015-Apr-23 16:33N 47°15' W 122°23'2 1.5
2015-Apr-23 15:33N 47°16' W 122°24'2 2.0
2015-Apr-23 14:33N 47°17' W 122°27'4 3.9
2015-Apr-23 13:33N 47°21' W 122°25'5 5.5
2015-Apr-23 12:33N 47°27' W 122°25'7 7.3
2015-Apr-23 11:33N 47°34' W 122°27'7 7.0
2015-Apr-23 10:33N 47°41' W 122°28'7 7.0
2015-Apr-23 09:33N 47°48' W 122°27'7 6.8
2015-Apr-23 08:33N 47°54' W 122°30'5 5.4
2015-Apr-23 07:33N 47°58' W 122°36'6 5.5
2015-Apr-23 06:33N 48°03' W 122°39'6 5.8
2015-Apr-23 05:33N 48°08' W 122°43'7 6.7
2015-Apr-23 04:33N 48°11' W 122°52'8 7.9
2015-Apr-23 03:33N 48°12' W 123°04'8 8.4
2015-Apr-23 02:33N 48°10' W 123°16'5 5.4
2015-Apr-23 01:33N 48°08' W 123°24'0 0.1
2015-Apr-22 23:29N 48°08' W 123°24'0 0.0
2015-Apr-22 22:33N 48°08' W 123°24'0 0.0
2015-Apr-22 21:33N 48°08' W 123°24'1 0.6
2015-Apr-22 20:33N 48°08' W 123°25'0 0.0
2015-Apr-22 19:33N 48°08' W 123°25'0 0.0
2015-Apr-22 18:33N 48°08' W 123°25'0 0.0
2015-Apr-22 17:33N 48°08' W 123°25'0 0.0
2015-Apr-22 16:33N 48°08' W 123°25'0 0.0
2015-Apr-22 15:33N 48°08' W 123°25'0 0.0
2015-Apr-22 14:33N 48°08' W 123°25'0 0.0
2015-Apr-22 13:33N 48°08' W 123°25'1 1.4
2015-Apr-22 12:33N 48°08' W 123°27'0 0.1
2015-Apr-22 11:12N 48°08' W 123°27'0 0.1
2015-Apr-22 10:33N 48°08' W 123°27'0 0.0
2015-Apr-22 09:30N 48°08' W 123°27'0 0.0
2015-Apr-22 08:30N 48°08' W 123°27'0 0.0
2015-Apr-22 07:30N 48°08' W 123°27'0 0.0
2015-Apr-22 06:30N 48°08' W 123°27'0 0.1
2015-Apr-22 05:27N 48°08' W 123°27'0 0.0
2015-Apr-22 04:33N 48°08' W 123°27'0 0.0
2015-Apr-22 03:30N 48°08' W 123°27'0 0.0
2015-Apr-22 02:27N 48°08' W 123°27'0 0.0
2015-Apr-22 01:21N 48°08' W 123°27'0 0.0
2015-Apr-22 00:21N 48°08' W 123°27'0 0.0
2015-Apr-21 23:33N 48°08' W 123°27'0 0.0
2015-Apr-21 22:33N 48°08' W 123°27'0 0.0
2015-Apr-21 21:33N 48°08' W 123°27'0 0.0
2015-Apr-21 20:33N 48°08' W 123°27'0 0.0
2015-Apr-21 19:21N 48°08' W 123°27'0 0.0
2015-Apr-21 18:33N 48°08' W 123°27'0 0.0
2015-Apr-21 17:30N 48°08' W 123°27'0 0.0
2015-Apr-21 16:15N 48°08' W 123°27'0 0.0
2015-Apr-21 15:30N 48°08' W 123°27'0 0.0
2015-Apr-21 14:33N 48°08' W 123°27'0 0.0
2015-Apr-21 13:15N 48°08' W 123°27'0 0.0
2015-Apr-21 12:33N 48°08' W 123°27'0 0.0
2015-Apr-21 11:27N 48°08' W 123°27'0 0.0
2015-Apr-21 10:24N 48°08' W 123°27'0 0.0
2015-Apr-21 09:33N 48°08' W 123°27'0 0.0
2015-Apr-21 08:30N 48°08' W 123°27'0 0.0
2015-Apr-21 07:33N 48°08' W 123°27'0 0.0
2015-Apr-21 06:33N 48°08' W 123°27'0 0.0
2015-Apr-21 05:33N 48°08' W 123°27'0 0.0
2015-Apr-21 04:33N 48°08' W 123°27'0 0.0
2015-Apr-21 03:32N 48°08' W 123°27'0 0.0
2015-Apr-21 02:33N 48°08' W 123°27'2 1.6
2015-Apr-21 01:33N 48°08' W 123°25'4 3.6
2015-Apr-21 00:33N 48°09' W 123°20'5 4.7
2015-Apr-20 23:33N 48°11' W 123°13'6 5.8
2015-Apr-20 22:31N 48°13' W 123°05'14 6.3
2015-Apr-20 20:21N 48°19' W 122°47'7 8.1
2015-Apr-20 19:33N 48°26' W 122°45'1010.3
2015-Apr-20 18:33N 48°35' W 122°40'5 4.7
2015-Apr-20 17:33N 48°36' W 122°33'0 0.4
2015-Apr-20 16:33N 48°36' W 122°33'0 0.0
2015-Apr-20 15:33N 48°36' W 122°32'0 0.0
2015-Apr-20 14:33N 48°36' W 122°32'0 0.1
2015-Apr-20 13:33N 48°36' W 122°32'0 0.1
2015-Apr-20 12:33N 48°36' W 122°32'0 0.1
2015-Apr-20 11:33N 48°36' W 122°32'3 2.6
2015-Apr-20 10:33N 48°37' W 122°36'5 5.3
2015-Apr-20 09:33N 48°33' W 122°40'5 5.1
2015-Apr-20 08:33N 48°28' W 122°44'5 5.1
2015-Apr-20 07:28N 48°23' W 122°44'5 5.1
2015-Apr-20 06:33N 48°18' W 122°46'5 4.8
2015-Apr-20 05:30N 48°13' W 122°48'9 7.7
2015-Apr-20 04:22N 48°07' W 122°39'6 6.8
2015-Apr-20 03:28N 48°01' W 122°37'6 7.1
2015-Apr-20 02:33N 47°56' W 122°30'6 6.0
2015-Apr-20 01:33N 47°51' W 122°27'6 6.1
2015-Apr-20 00:33N 47°45' W 122°26'6 5.9
2015-Apr-19 23:33N 47°39' W 122°27'5 4.7
2015-Apr-19 22:34N 47°36' W 122°21'1 1.0
2015-Apr-19 21:33N 47°35' W 122°21'0 0.0
2015-Apr-19 20:33N 47°35' W 122°21'0 0.0
2015-Apr-19 19:33N 47°35' W 122°21'0 0.0
2015-Apr-19 18:33N 47°35' W 122°21'0 0.0
2015-Apr-19 17:33N 47°35' W 122°21'0 0.0
2015-Apr-19 16:33N 47°35' W 122°21'0 0.0
2015-Apr-19 15:33N 47°35' W 122°21'0 0.0
2015-Apr-19 14:33N 47°35' W 122°21'0 0.0
2015-Apr-19 13:33N 47°35' W 122°21'0 0.4
2015-Apr-19 12:33N 47°34' W 122°21'0 0.0
2015-Apr-19 11:33N 47°34' W 122°21'0 0.0
2015-Apr-19 10:33N 47°34' W 122°21'0 0.0
2015-Apr-19 09:33N 47°34' W 122°21'0 0.0
2015-Apr-19 08:33N 47°34' W 122°21'0 0.0
2015-Apr-19 07:33N 47°34' W 122°21'0 0.0
2015-Apr-19 06:33N 47°34' W 122°21'0 0.0
2015-Apr-19 05:33N 47°34' W 122°21'0 0.0
2015-Apr-19 04:33N 47°34' W 122°21'0 0.0
2015-Apr-19 03:33N 47°34' W 122°21'0 0.0
2015-Apr-19 02:33N 47°34' W 122°21'0 0.0
2015-Apr-19 01:33N 47°34' W 122°21'0 0.0
2015-Apr-19 00:30N 47°34' W 122°21'0 0.0
2015-Apr-18 23:33N 47°34' W 122°21'0 0.0
2015-Apr-18 22:33N 47°34' W 122°21'0 0.0
2015-Apr-18 21:33N 47°34' W 122°21'0 0.0
2015-Apr-18 20:33N 47°34' W 122°21'0 0.0
2015-Apr-18 19:33N 47°34' W 122°21'0 0.0
2015-Apr-18 18:33N 47°34' W 122°21'0 0.0
2015-Apr-18 17:33N 47°34' W 122°21'0 0.1
2015-Apr-18 16:33N 47°35' W 122°21'0 0.2
2015-Apr-18 15:33N 47°34' W 122°21'0 0.0
2015-Apr-18 14:33N 47°34' W 122°21'0 0.1
2015-Apr-18 13:33N 47°34' W 122°21'0 0.0
2015-Apr-18 12:33N 47°34' W 122°21'0 0.0
2015-Apr-18 11:33N 47°34' W 122°21'0 0.0
2015-Apr-18 10:33N 47°34' W 122°21'0 0.0
2015-Apr-18 09:33N 47°34' W 122°21'0 0.0
2015-Apr-18 08:33N 47°34' W 122°21'0 0.0
2015-Apr-18 07:33N 47°34' W 122°21'0 0.0
2015-Apr-18 06:33N 47°34' W 122°21'0 0.0
2015-Apr-18 05:33N 47°34' W 122°21'0 0.0
2015-Apr-18 04:33N 47°34' W 122°21'0 0.0
2015-Apr-18 03:33N 47°34' W 122°21'0 0.0
2015-Apr-18 02:34N 47°34' W 122°21'0 0.0
2015-Apr-18 01:33N 47°34' W 122°21'0 0.0
2015-Apr-18 00:33N 47°34' W 122°21'0 0.0
2015-Apr-17 23:33N 47°34' W 122°21'0 0.0
2015-Apr-17 22:33N 47°34' W 122°21'0 0.0
2015-Apr-17 21:33N 47°34' W 122°21'0 0.0
2015-Apr-17 20:33N 47°34' W 122°21'  

Dump ship's entire track history